Terminal Aerodrome Forecast
Issued by NWS Portland, OR

Home | Current Version | Previous Version | Text Only | Print | Product List | Glossary On
Versions: 1 2 3 4 5 6 7 8 9 10 11 12 13 14 15 16 17
000
FTUS46 KPQR 201131
TAFHIO
TAF
KHIO 201131Z 2012/2112 13005KT P6SM -RA SCT030 OVC050
     FM201600 12006KT P6SM -RA OVC030
     FM201900 08005KT 5SM -RA OVC018
     FM202100 20012G20KT 6SM -SHRA BR BKN022 OVC040
     FM202300 23010KT P6SM -SHRA SCT025 OVC050
     FM210500 18004KT P6SM VCSH SCT025 BKN050=

USA.gov is the U.S. government's official web portal to all federal, state and local government web resources and services.